Time;durP1;ratioP1;P1;durP2;ratioP2;P2;SDS_P1;SDS_P2;PMS_P1;PMS_P2;Temp;Humidity;BMP_temperature;BMP_pressure;BME280_temperature;BME280_humidity;BME280_pressure;Samples;Min_cycle;Max_cycle;Signal;HPM_P1;HPM_P2
2022/12/08 00:01:32;;;;;;;6.65;1.85;;;2.50;99.90;;;;;;4941014;28;90514;-31
2022/12/08 00:03:59;;;;;;;4.30;2.28;;;2.50;99.90;;;;;;4940880;28;89816;-33
2022/12/08 00:09:33;;;;;;;4.75;2.60;;;2.60;99.90;;;;;;4941059;28;89900;-31
2022/12/08 00:12:04;;;;;;;6.60;2.58;;;2.60;99.90;;;;;;4940548;28;90804;-34
2022/12/08 00:14:44;;;;;;;9.77;2.53;;;2.60;99.90;;;;;;4939666;28;90004;-31
2022/12/08 00:17:14;;;;;;;10.70;2.88;;;2.60;99.90;;;;;;4949848;28;90906;-31
2022/12/08 00:19:40;;;;;;;6.15;2.70;;;2.70;99.90;;;;;;4939871;28;88069;-30
2022/12/08 00:22:08;;;;;;;6.35;2.47;;;2.70;99.90;;;;;;4940221;28;90323;-31
2022/12/08 00:24:38;;;;;;;5.10;2.53;;;2.60;99.90;;;;;;4940241;28;89602;-30
2022/12/08 00:27:04;;;;;;;3.40;2.30;;;2.70;99.90;;;;;;4946212;28;89494;-29
2022/12/08 00:29:30;;;;;;;3.28;2.42;;;2.70;99.90;;;;;;4939527;28;88398;-31
2022/12/08 00:31:55;;;;;;;6.53;2.17;;;2.60;99.90;;;;;;4940742;28;90456;-30
2022/12/08 00:34:21;;;;;;;7.80;2.60;;;2.60;99.90;;;;;;4940557;28;89813;-30
2022/12/08 00:36:47;;;;;;;3.83;2.53;;;2.70;99.90;;;;;;4939470;28;89224;-33
2022/12/08 00:39:13;;;;;;;5.22;2.50;;;2.70;99.90;;;;;;4940082;28;88631;-31
2022/12/08 00:44:23;;;;;;;5.85;2.70;;;2.70;99.90;;;;;;4940783;28;89494;-35
2022/12/08 00:46:49;;;;;;;5.88;2.85;;;2.60;99.90;;;;;;4940284;28;89431;-31
2022/12/08 00:49:15;;;;;;;3.75;2.42;;;2.60;99.90;;;;;;4940010;28;89651;-30
2022/12/08 00:51:42;;;;;;;7.90;3.38;;;2.60;99.90;;;;;;4939501;28;90466;-30
2022/12/08 00:54:08;;;;;;;8.52;2.88;;;2.50;99.90;;;;;;4939936;28;89644;-30
2022/12/08 00:56:34;;;;;;;4.93;2.38;;;2.50;99.90;;;;;;4940139;28;90041;-32
2022/12/08 00:59:00;;;;;;;4.20;2.88;;;2.50;99.90;;;;;;4940824;28;88325;-31
2022/12/08 01:01:26;;;;;;;4.78;2.45;;;2.50;99.90;;;;;;4939305;28;90283;-29
2022/12/08 01:03:52;;;;;;;5.18;3.28;;;2.50;99.90;;;;;;4939948;28;88750;-34
2022/12/08 01:06:18;;;;;;;5.07;2.38;;;2.50;99.90;;;;;;4939966;28;89320;-31
2022/12/08 01:08:44;;;;;;;4.40;2.58;;;2.40;99.90;;;;;;4940011;28;89279;-31
2022/12/08 01:11:13;;;;;;;9.25;2.53;;;2.40;99.90;;;;;;4940372;28;89798;-31
2022/12/08 01:13:39;;;;;;;4.03;2.70;;;2.40;99.90;;;;;;4939972;28;89668;-31
2022/12/08 01:16:05;;;;;;;8.93;2.60;;;2.40;99.90;;;;;;4939325;28;90143;-30
2022/12/08 01:18:31;;;;;;;3.53;2.60;;;2.40;99.90;;;;;;4940440;28;90167;-30
2022/12/08 01:21:05;;;;;;;3.45;2.25;;;2.40;99.90;;;;;;4939725;28;90063;-32
2022/12/08 01:23:32;;;;;;;3.83;2.33;;;2.40;99.90;;;;;;4938452;28;89278;-34
2022/12/08 01:26:06;;;;;;;6.82;1.95;;;2.50;99.90;;;;;;4939572;28;89692;-31
2022/12/08 01:28:32;;;;;;;3.20;1.95;;;2.50;99.90;;;;;;4939111;28;89259;-32
2022/12/08 01:30:59;;;;;;;5.10;2.33;;;2.60;99.90;;;;;;4940078;28;90109;-31
2022/12/08 01:33:26;;;;;;;2.95;2.53;;;2.60;99.90;;;;;;4939719;28;89746;-31
2022/12/08 01:35:52;;;;;;;3.42;3.13;;;2.60;99.90;;;;;;4939056;28;89199;-32
2022/12/08 01:38:18;;;;;;;5.65;3.08;;;2.60;99.90;;;;;;4940013;28;88862;-30
2022/12/08 01:40:44;;;;;;;7.10;2.45;;;2.60;99.90;;;;;;4938651;28;89982;-32
2022/12/08 01:43:16;;;;;;;6.53;2.67;;;2.60;99.90;;;;;;4942502;28;90813;-32
2022/12/08 01:45:42;;;;;;;3.35;2.05;;;2.60;99.90;;;;;;4942662;28;89396;-30
2022/12/08 01:48:13;;;;;;;3.50;2.88;;;2.60;99.90;;;;;;4943435;28;88537;-31
2022/12/08 01:50:41;;;;;;;2.88;2.60;;;2.50;99.90;;;;;;4942020;28;90236;-35
2022/12/08 01:53:23;;;;;;;6.07;2.60;;;2.50;99.90;;;;;;4942563;28;89721;-34
2022/12/08 01:55:57;;;;;;;5.18;2.65;;;2.50;99.90;;;;;;4942376;28;90795;-31
2022/12/08 01:58:31;;;;;;;6.47;2.92;;;2.50;99.90;;;;;;4943931;28;88579;-33
2022/12/08 02:00:56;;;;;;;4.10;3.10;;;2.50;99.90;;;;;;4941269;28;89308;-32
2022/12/08 02:03:32;;;;;;;4.47;2.60;;;2.50;99.90;;;;;;4943064;28;90100;-31
2022/12/08 02:05:58;;;;;;;6.15;3.42;;;2.50;99.90;;;;;;4941875;28;89672;-32
2022/12/08 02:08:25;;;;;;;6.18;2.75;;;2.50;99.90;;;;;;4942809;28;89518;-33
2022/12/08 02:10:51;;;;;;;9.48;3.95;;;2.40;99.90;;;;;;4942966;28;90579;-33
2022/12/08 02:13:19;;;;;;;7.53;3.50;;;2.50;99.90;;;;;;4941749;28;89243;-31
2022/12/08 02:16:01;;;;;;;3.57;3.23;;;2.50;99.90;;;;;;4942010;28;89668;-31
2022/12/08 02:18:34;;;;;;;3.20;2.90;;;2.50;99.90;;;;;;4941825;28;89066;-32
2022/12/08 02:21:25;;;;;;;7.68;4.05;;;2.50;99.90;;;;;;4942258;28;89876;-32
2022/12/08 02:24:22;;;;;;;8.70;3.55;;;2.50;99.90;;;;;;4941693;28;89652;-33
2022/12/08 02:27:19;;;;;;;3.75;3.28;;;2.50;99.90;;;;;;4906959;28;89719;-32
2022/12/08 02:29:50;;;;;;;4.45;3.47;;;2.50;99.90;;;;;;4942123;28;89397;-32
2022/12/08 02:32:34;;;;;;;6.53;3.85;;;2.50;99.90;;;;;;4942119;28;89721;-32
2022/12/08 02:35:26;;;;;;;6.07;3.45;;;2.50;99.90;;;;;;4942389;28;89888;-29
2022/12/08 02:38:32;;;;;;;11.02;3.75;;;2.50;99.90;;;;;;4942451;28;89155;-31
2022/12/08 02:41:01;;;;;;;6.53;4.32;;;2.50;99.90;;;;;;4941239;28;88945;-34
2022/12/08 02:43:31;;;;;;;6.57;3.53;;;2.50;99.90;;;;;;4942250;28;89918;-32
2022/12/08 02:46:08;;;;;;;6.10;3.53;;;2.50;99.90;;;;;;4941761;28;90946;-31
2022/12/08 02:48:34;;;;;;;6.88;3.72;;;2.50;99.90;;;;;;4941917;28;91201;-31
2022/12/08 02:51:00;;;;;;;7.10;3.92;;;2.50;99.90;;;;;;4942078;28;89051;-33
2022/12/08 02:53:28;;;;;;;4.13;3.63;;;2.50;99.90;;;;;;4941563;28;89948;-32
2022/12/08 02:56:04;;;;;;;6.82;3.63;;;2.50;99.90;;;;;;4941933;28;89617;-33
2022/12/08 02:58:45;;;;;;;3.92;3.63;;;2.40;99.90;;;;;;4942043;28;89580;-30
2022/12/08 03:01:14;;;;;;;6.85;4.25;;;2.50;99.90;;;;;;4941958;28;89257;-32
2022/12/08 03:04:01;;;;;;;4.18;3.75;;;2.50;99.90;;;;;;4941152;28;91562;-32
2022/12/08 03:06:33;;;;;;;7.50;3.42;;;2.50;99.90;;;;;;4941156;28;91393;-33
2022/12/08 03:08:59;;;;;;;9.77;3.60;;;2.50;99.90;;;;;;4936686;28;89624;-34
2022/12/08 03:11:41;;;;;;;7.50;4.10;;;2.50;99.90;;;;;;4921158;28;90399;-32
2022/12/08 03:14:10;;;;;;;7.15;3.88;;;2.50;99.90;;;;;;4925666;28;90268;-31
2022/12/08 03:16:39;;;;;;;12.02;4.55;;;2.50;99.90;;;;;;4939952;28;89895;-31
2022/12/08 03:19:17;;;;;;;9.65;4.53;;;2.50;99.90;;;;;;4927874;28;89715;-29
2022/12/08 03:21:45;;;;;;;5.05;3.95;;;2.50;99.90;;;;;;4940631;28;88640;-34
2022/12/08 03:24:14;;;;;;;7.23;4.37;;;2.60;99.90;;;;;;4941180;28;89845;-30
2022/12/08 03:26:47;;;;;;;8.52;4.18;;;2.60;99.90;;;;;;4930469;28;89908;-34
2022/12/08 03:29:13;;;;;;;5.55;4.05;;;2.60;99.90;;;;;;4938540;28;89614;-32
2022/12/08 03:31:46;;;;;;;4.65;4.00;;;2.60;99.90;;;;;;4940563;28;88118;-31
2022/12/08 03:34:13;;;;;;;5.22;3.90;;;2.60;99.90;;;;;;4941376;28;90272;-30
2022/12/08 03:36:39;;;;;;;4.77;4.27;;;2.60;99.90;;;;;;4939516;28;90982;-31
2022/12/08 03:39:04;;;;;;;9.02;4.75;;;2.60;99.90;;;;;;4941353;28;90143;-33
2022/12/08 03:41:30;;;;;;;6.50;4.38;;;2.60;99.90;;;;;;4940738;28;88951;-32
2022/12/08 03:43:58;;;;;;;9.77;4.63;;;2.60;99.90;;;;;;4929622;28;90349;-32
2022/12/08 03:46:26;;;;;;;5.83;4.60;;;2.70;99.90;;;;;;4938921;28;89195;-35
2022/12/08 03:48:52;;;;;;;;;;;2.70;99.90;;;;;;4942168;28;90380;-32
2022/12/08 03:51:18;;;;;;;7.13;4.43;;;2.70;99.90;;;;;;4942209;28;89552;-31
2022/12/08 03:53:44;;;;;;;9.75;4.70;;;2.70;99.90;;;;;;4941321;28;90148;-33
2022/12/08 03:56:21;;;;;;;8.10;5.82;;;2.70;99.90;;;;;;4941183;28;89838;-30
2022/12/08 03:58:46;;;;;;;5.85;5.22;;;2.70;99.90;;;;;;4940065;28;89656;-32
2022/12/08 04:01:12;;;;;;;6.47;5.43;;;2.70;99.90;;;;;;4940625;28;89600;-33
2022/12/08 04:03:38;;;;;;;5.97;5.38;;;2.70;99.90;;;;;;4940049;28;89932;-32
2022/12/08 04:06:04;;;;;;;6.35;5.30;;;2.70;99.90;;;;;;4940542;28;88883;-33
2022/12/08 04:08:29;;;;;;;6.85;4.55;;;2.80;99.90;;;;;;4940866;28;89598;-31
2022/12/08 04:10:55;;;;;;;8.40;4.75;;;2.80;99.90;;;;;;4940216;28;88369;-32
2022/12/08 04:13:20;;;;;;;4.70;4.00;;;2.80;99.90;;;;;;4940452;28;88767;-32
2022/12/08 04:15:47;;;;;;;8.13;4.00;;;2.80;99.90;;;;;;4940066;28;89372;-32
2022/12/08 04:18:14;;;;;;;4.28;3.88;;;2.80;99.90;;;;;;4928222;28;89543;-32
2022/12/08 04:20:41;;;;;;;5.03;3.50;;;2.90;99.90;;;;;;4940311;28;89381;-33
2022/12/08 04:23:07;;;;;;;3.50;3.20;;;2.90;99.90;;;;;;4939644;28;90815;-32
2022/12/08 04:25:34;;;;;;;3.95;2.75;;;2.80;99.90;;;;;;4939235;28;90438;-31
2022/12/08 04:27:59;;;;;;;4.07;2.92;;;2.80;99.90;;;;;;4940648;28;90557;-33
2022/12/08 04:30:25;;;;;;;2.55;2.22;;;2.80;99.90;;;;;;4940244;28;88656;-31
2022/12/08 04:32:50;;;;;;;2.83;2.63;;;2.70;99.90;;;;;;4940706;28;90061;-31
2022/12/08 04:35:16;;;;;;;5.95;2.33;;;2.70;99.90;;;;;;4939650;28;89852;-33
2022/12/08 04:37:43;;;;;;;3.72;2.20;;;2.70;99.90;;;;;;4939838;28;90124;-31
2022/12/08 04:40:10;;;;;;;3.10;2.45;;;2.70;99.90;;;;;;4941398;28;89322;-30
2022/12/08 04:42:36;;;;;;;2.58;1.98;;;2.70;99.90;;;;;;4940413;28;93030;-31
2022/12/08 04:45:02;;;;;;;3.40;2.42;;;2.60;99.90;;;;;;4939885;28;90243;-31
2022/12/08 04:47:28;;;;;;;2.92;2.13;;;2.60;99.90;;;;;;4939795;28;89735;-32
2022/12/08 04:49:54;;;;;;;3.35;2.58;;;2.60;99.90;;;;;;4939467;28;89444;-30
2022/12/08 04:52:19;;;;;;;2.60;2.42;;;2.60;99.90;;;;;;4940078;28;89082;-33
2022/12/08 04:54:45;;;;;;;3.25;2.42;;;2.60;99.90;;;;;;4937986;28;89456;-33
2022/12/08 04:57:10;;;;;;;2.40;2.20;;;2.60;99.90;;;;;;4940449;28;89381;-32
2022/12/08 04:59:36;;;;;;;3.42;2.58;;;2.60;99.90;;;;;;4939707;28;89680;-31
2022/12/08 05:02:01;;;;;;;3.45;3.15;;;2.60;99.90;;;;;;4939618;28;89963;-32
2022/12/08 05:04:27;;;;;;;3.25;2.95;;;2.60;99.90;;;;;;4938646;28;89170;-32
2022/12/08 05:06:53;;;;;;;4.72;3.70;;;2.60;99.90;;;;;;4939715;28;88555;-31
2022/12/08 05:09:18;;;;;;;4.55;3.42;;;2.60;99.90;;;;;;4940551;28;88878;-33
2022/12/08 05:11:44;;;;;;;10.23;3.83;;;2.60;99.90;;;;;;4938743;28;90689;-33
2022/12/08 05:14:12;;;;;;;5.75;4.10;;;2.60;99.90;;;;;;4939167;28;90625;-33
2022/12/08 05:16:38;;;;;;;6.38;3.28;;;2.60;99.90;;;;;;4941752;28;90613;-33
2022/12/08 05:19:04;;;;;;;4.40;4.00;;;2.60;99.90;;;;;;4929999;28;89208;-33
2022/12/08 05:21:30;;;;;;;6.85;4.10;;;2.60;99.90;;;;;;4942703;28;90427;-31
2022/12/08 05:23:55;;;;;;;13.63;4.00;;;2.60;99.90;;;;;;4942867;28;89606;-33
2022/12/08 05:26:21;;;;;;;4.20;3.88;;;2.60;99.90;;;;;;4942831;28;89526;-30
2022/12/08 05:28:46;;;;;;;6.43;4.15;;;2.70;99.90;;;;;;4942819;28;88067;-32
2022/12/08 05:31:13;;;;;;;6.03;5.40;;;2.70;99.90;;;;;;4943419;28;90981;-31
2022/12/08 05:33:40;;;;;;;4.53;4.13;;;2.70;99.90;;;;;;4942687;28;89680;-32
2022/12/08 05:36:06;;;;;;;4.18;3.72;;;2.70;99.90;;;;;;4942629;28;89846;-31
2022/12/08 05:38:31;;;;;;;6.40;4.65;;;2.70;99.90;;;;;;4942393;28;88093;-31
2022/12/08 05:40:57;;;;;;;6.93;4.13;;;2.70;99.90;;;;;;4943112;28;90316;-31
2022/12/08 05:43:23;;;;;;;10.15;4.18;;;2.70;99.90;;;;;;4942942;28;90057;-30
2022/12/08 05:45:49;;;;;;;5.50;4.55;;;2.70;99.90;;;;;;4942777;28;89498;-34
2022/12/08 05:48:15;;;;;;;6.68;5.18;;;2.70;99.90;;;;;;4942648;28;89221;-29
2022/12/08 05:50:48;;;;;;;5.63;5.13;;;2.70;99.90;;;;;;4942430;28;90755;-33
2022/12/08 05:53:15;;;;;;;7.32;3.80;;;2.80;99.90;;;;;;4943458;28;89775;-32
2022/12/08 05:55:41;;;;;;;4.50;4.10;;;2.80;99.90;;;;;;4942268;28;90185;-31
2022/12/08 05:58:11;;;;;;;11.35;4.75;;;2.70;99.90;;;;;;4942524;28;90067;-33
2022/12/08 06:00:37;;;;;;;5.68;3.58;;;2.80;99.90;;;;;;4941920;28;89453;-32
2022/12/08 06:03:02;;;;;;;3.63;3.30;;;2.70;99.90;;;;;;4942685;28;90162;-31
2022/12/08 06:05:28;;;;;;;5.88;4.72;;;2.70;99.90;;;;;;4942034;28;91155;-33
2022/12/08 06:07:54;;;;;;;5.53;4.30;;;2.70;99.90;;;;;;4942826;28;89339;-31
2022/12/08 06:10:19;;;;;;;4.95;3.55;;;2.70;99.90;;;;;;4942577;28;89752;-31
2022/12/08 06:12:45;;;;;;;4.25;3.60;;;2.70;99.90;;;;;;4942501;28;89781;-32
2022/12/08 06:15:10;;;;;;;3.20;2.70;;;2.70;99.90;;;;;;4942684;28;89424;-31
2022/12/08 06:17:36;;;;;;;5.53;4.18;;;2.70;99.90;;;;;;4934222;28;89774;-33
2022/12/08 06:20:02;;;;;;;9.95;3.75;;;2.70;99.90;;;;;;4937070;28;90359;-31
2022/12/08 06:22:29;;;;;;;5.75;2.75;;;2.70;99.90;;;;;;4940571;28;89865;-33
2022/12/08 06:24:54;;;;;;;3.33;3.03;;;2.70;99.90;;;;;;4942120;28;89701;-32
2022/12/08 06:27:20;;;;;;;4.38;3.45;;;2.70;99.90;;;;;;4941394;28;90160;-31
2022/12/08 06:29:45;;;;;;;4.97;2.85;;;2.70;99.90;;;;;;4941803;28;89188;-33
2022/12/08 06:32:11;;;;;;;5.55;2.70;;;2.70;99.90;;;;;;4942033;28;89068;-31
2022/12/08 06:34:36;;;;;;;2.67;2.47;;;2.70;99.90;;;;;;4941526;28;90656;-30
2022/12/08 06:37:02;;;;;;;3.95;2.50;;;2.70;99.90;;;;;;4942304;28;90022;-35
2022/12/08 06:39:28;;;;;;;1.85;1.75;;;2.70;99.90;;;;;;4941793;28;90062;-31
2022/12/08 06:44:38;;;;;;;2.40;2.20;;;2.60;99.90;;;;;;4928769;28;89500;-31
2022/12/08 06:47:04;;;;;;;2.83;2.03;;;2.60;99.90;;;;;;4941990;28;89284;-32
2022/12/08 06:49:30;;;;;;;6.53;2.03;;;2.60;99.90;;;;;;4941894;28;89873;-31
2022/12/08 06:51:55;;;;;;;3.00;2.17;;;2.50;99.90;;;;;;4941097;28;90663;-33
2022/12/08 06:54:21;;;;;;;3.03;2.35;;;2.60;99.90;;;;;;4941756;28;90790;-33
2022/12/08 06:56:46;;;;;;;5.88;3.03;;;2.50;99.90;;;;;;4941465;28;88284;-32
2022/12/08 06:59:12;;;;;;;5.63;3.50;;;2.60;99.90;;;;;;4941253;28;90665;-32
2022/12/08 07:01:38;;;;;;;5.60;3.17;;;2.50;99.90;;;;;;4941246;28;91054;-31
2022/12/08 07:04:04;;;;;;;5.72;3.92;;;2.60;99.90;;;;;;4941892;28;89665;-30
2022/12/08 07:06:29;;;;;;;6.30;5.60;;;2.50;99.90;;;;;;4941695;28;89606;-31
2022/12/08 07:08:55;;;;;;;9.40;5.95;;;2.60;99.90;;;;;;4941489;28;89911;-32
2022/12/08 07:11:20;;;;;;;6.72;5.38;;;2.60;99.90;;;;;;4941288;28;89222;-31
2022/12/08 07:13:46;;;;;;;6.85;4.88;;;2.60;99.90;;;;;;4941226;28;89592;-32
2022/12/08 07:16:12;;;;;;;11.57;5.15;;;2.60;99.90;;;;;;4941060;28;89980;-31
2022/12/08 07:18:38;;;;;;;7.13;5.10;;;2.60;99.90;;;;;;4927724;28;89823;-30
2022/12/08 07:21:07;;;;;;;8.57;4.97;;;2.60;99.90;;;;;;4941111;28;89687;-34
2022/12/08 07:23:32;;;;;;;7.03;4.53;;;2.60;99.90;;;;;;4940178;28;89629;-32
2022/12/08 07:26:03;;;;;;;6.25;4.63;;;2.60;99.90;;;;;;4941789;28;90365;-30
2022/12/08 07:28:32;;;;;;;6.03;4.20;;;2.70;99.90;;;;;;4941690;28;89769;-32
2022/12/08 07:30:58;;;;;;;4.05;3.65;;;2.60;99.90;;;;;;4941744;28;89145;-31
2022/12/08 07:33:23;;;;;;;6.50;4.00;;;2.70;99.90;;;;;;4941049;28;89995;-34
2022/12/08 07:35:57;;;;;;;5.55;5.05;;;2.60;99.90;;;;;;4941415;28;89602;-33
2022/12/08 07:38:23;;;;;;;4.28;3.60;;;2.70;99.90;;;;;;4940773;28;90568;-31
2022/12/08 07:40:50;;;;;;;6.28;3.65;;;2.60;99.90;;;;;;4940343;28;90707;-32
2022/12/08 07:43:15;;;;;;;5.13;4.60;;;2.60;99.90;;;;;;4940476;28;89728;-32
2022/12/08 07:45:41;;;;;;;5.72;4.50;;;2.60;99.90;;;;;;4940122;28;88482;-33
2022/12/08 07:48:07;;;;;;;8.60;5.80;;;2.60;99.90;;;;;;4940806;28;90344;-32
2022/12/08 07:50:33;;;;;;;4.88;4.38;;;2.60;99.90;;;;;;4941097;28;88966;-32
2022/12/08 07:52:59;;;;;;;5.70;4.97;;;2.70;99.90;;;;;;4925555;28;89195;-32
2022/12/08 07:55:25;;;;;;;8.25;5.13;;;2.70;99.90;;;;;;4926373;28;89606;-31
2022/12/08 07:57:50;;;;;;;5.68;4.28;;;2.70;99.90;;;;;;4937491;28;90216;-30
2022/12/08 08:00:17;;;;;;;4.97;4.47;;;2.70;99.90;;;;;;4934131;28;90276;-33
2022/12/08 08:02:43;;;;;;;5.22;4.07;;;2.70;99.90;;;;;;4934499;28;90315;-30
2022/12/08 08:05:09;;;;;;;7.15;3.90;;;2.60;99.90;;;;;;4939880;28;89618;-31
2022/12/08 08:07:35;;;;;;;4.28;3.85;;;2.70;99.90;;;;;;4940147;28;90436;-32
2022/12/08 08:10:01;;;;;;;14.32;10.55;;;2.70;99.90;;;;;;4940219;28;90719;-31
2022/12/08 08:12:27;;;;;;;5.38;3.83;;;2.60;99.90;;;;;;4939217;28;89224;-31
2022/12/08 08:14:52;;;;;;;8.70;4.47;;;2.60;99.90;;;;;;4939253;28;87687;-30
2022/12/08 08:17:18;;;;;;;5.43;4.25;;;2.60;99.90;;;;;;4931977;28;90354;-31
2022/12/08 08:19:45;;;;;;;5.53;4.45;;;2.60;99.90;;;;;;4929528;28;90237;-32
2022/12/08 08:22:10;;;;;;;4.55;3.95;;;2.60;99.90;;;;;;4937261;28;89724;-32
2022/12/08 08:24:36;;;;;;;4.43;4.05;;;2.60;99.90;;;;;;4937705;28;88499;-32
2022/12/08 08:27:02;;;;;;;4.75;4.10;;;2.60;99.90;;;;;;4937592;28;91742;-29
2022/12/08 08:29:27;;;;;;;4.78;4.38;;;2.60;99.90;;;;;;4937909;28;90429;-31
2022/12/08 08:31:53;;;;;;;9.25;4.18;;;2.50;99.90;;;;;;4938039;28;90422;-32
2022/12/08 08:34:18;;;;;;;5.25;4.40;;;2.50;99.90;;;;;;4937650;28;88363;-32
2022/12/08 08:36:44;;;;;;;4.53;4.13;;;2.50;99.90;;;;;;4937570;28;89105;-32
2022/12/08 08:39:10;;;;;;;4.50;4.10;;;2.50;99.90;;;;;;4937509;28;90288;-32
2022/12/08 08:41:35;;;;;;;8.57;4.75;;;2.60;99.90;;;;;;4937649;28;89617;-30
2022/12/08 08:44:01;;;;;;;4.88;4.07;;;2.50;99.90;;;;;;4938391;28;87933;-30
2022/12/08 08:46:27;;;;;;;7.80;4.53;;;2.60;99.90;;;;;;4937430;28;90064;-30
2022/12/08 08:48:52;;;;;;;5.22;4.72;;;2.60;99.90;;;;;;4938181;28;89564;-31
2022/12/08 08:51:18;;;;;;;6.57;5.45;;;2.60;99.90;;;;;;4936787;28;89354;-33
2022/12/08 08:53:43;;;;;;;5.13;4.68;;;2.60;99.90;;;;;;4937827;28;88955;-31
2022/12/08 08:56:13;;;;;;;5.32;4.13;;;2.60;99.90;;;;;;4937694;28;91149;-31
2022/12/08 08:58:40;;;;;;;10.32;4.72;;;2.60;99.90;;;;;;4937103;28;89448;-33
2022/12/08 09:01:05;;;;;;;5.13;4.20;;;2.50;99.90;;;;;;4936833;28;90070;-32
2022/12/08 09:03:31;;;;;;;7.03;6.32;;;2.60;99.90;;;;;;4937893;28;88885;-33
2022/12/08 09:05:56;;;;;;;11.05;7.53;;;2.60;99.90;;;;;;4937916;28;88912;-34
2022/12/08 09:08:23;;;;;;;10.77;4.65;;;2.60;99.90;;;;;;4937571;28;90251;-32
2022/12/08 09:10:48;;;;;;;5.80;4.70;;;2.60;99.90;;;;;;4937285;28;88918;-33
2022/12/08 09:13:14;;;;;;;11.43;3.90;;;2.60;99.90;;;;;;4936917;28;88047;-30
2022/12/08 09:15:40;;;;;;;9.85;4.45;;;2.60;99.90;;;;;;4940368;28;90175;-30
2022/12/08 09:18:05;;;;;;;7.00;4.07;;;2.60;99.90;;;;;;4925878;28;90613;-30
2022/12/08 09:20:32;;;;;;;6.15;3.53;;;2.50;99.90;;;;;;4936079;28;90390;-33
2022/12/08 09:22:58;;;;;;;7.07;3.53;;;2.50;99.90;;;;;;4995298;22;89079;-31
2022/12/08 09:25:23;;;;;;;3.95;3.38;;;2.50;99.90;;;;;;4955768;28;90327;-35
2022/12/08 09:27:49;;;;;;;4.85;3.42;;;2.50;99.90;;;;;;4956869;28;89820;-30
2022/12/08 09:30:15;;;;;;;7.25;3.65;;;2.50;99.90;;;;;;4956598;28;89589;-32
2022/12/08 09:32:40;;;;;;;3.58;3.00;;;2.50;99.90;;;;;;4956371;28;88689;-33
2022/12/08 09:35:06;;;;;;;7.75;3.53;;;2.50;99.90;;;;;;4956514;28;90340;-33
2022/12/08 09:37:32;;;;;;;7.40;3.50;;;2.50;99.90;;;;;;4955971;28;90046;-33
2022/12/08 09:39:58;;;;;;;6.72;3.47;;;2.50;99.90;;;;;;4956358;28;90115;-31
2022/12/08 09:42:50;;;;;;;6.57;2.63;;;2.50;99.90;;;;;;4955784;28;90718;-32
2022/12/08 09:45:17;;;;;;;9.73;3.85;;;2.60;99.90;;;;;;4957116;28;90586;-33
2022/12/08 09:48:03;;;;;;;7.88;2.70;;;2.60;99.90;;;;;;4956810;28;89586;-31
2022/12/08 09:50:36;;;;;;;3.30;2.80;;;2.50;99.90;;;;;;4951967;28;89235;-31
2022/12/08 09:53:11;;;;;;;5.07;3.25;;;2.50;99.90;;;;;;4956669;28;90054;-32
2022/12/08 09:55:45;;;;;;;4.43;2.80;;;2.50;99.90;;;;;;4955968;28;91378;-30
2022/12/08 09:58:26;;;;;;;6.13;3.33;;;2.50;99.90;;;;;;4956869;28;89598;-31
2022/12/08 10:00:51;;;;;;;5.93;2.75;;;2.50;99.90;;;;;;4957355;28;89292;-33
2022/12/08 10:03:18;;;;;;;6.07;3.47;;;2.40;99.90;;;;;;4958409;28;89770;-31
2022/12/08 10:05:53;;;;;;;3.10;2.88;;;2.40;99.90;;;;;;4960294;28;90390;-30
2022/12/08 10:08:27;;;;;;;6.63;2.90;;;2.40;99.90;;;;;;4959428;28;90764;-29
2022/12/08 10:10:58;;;;;;;4.55;3.33;;;2.40;99.90;;;;;;4958382;28;90511;-34
2022/12/08 10:13:43;;;;;;;6.45;2.78;;;2.40;99.90;;;;;;4959592;28;89479;-35
2022/12/08 10:16:33;;;;;;;4.03;2.20;;;2.40;99.90;;;;;;4960001;28;89941;-31
2022/12/08 10:19:24;;;;;;;3.15;2.58;;;2.40;99.90;;;;;;4946278;28;89291;-31
2022/12/08 10:21:51;;;;;;;5.55;2.58;;;2.40;99.90;;;;;;4953658;28;89610;-31
2022/12/08 10:24:36;;;;;;;2.97;2.67;;;2.30;99.90;;;;;;4959678;28;89242;-30
2022/12/08 10:27:02;;;;;;;5.85;2.90;;;2.20;99.90;;;;;;4952887;28;90028;-31
2022/12/08 10:29:28;;;;;;;9.68;3.25;;;2.20;99.90;;;;;;4957611;28;88871;-32
2022/12/08 10:31:57;;;;;;;6.00;3.22;;;2.20;99.90;;;;;;4960360;28;89311;-32
2022/12/08 10:34:23;;;;;;;2.78;2.58;;;2.20;99.90;;;;;;4959131;28;90408;-32
2022/12/08 10:36:52;;;;;;;7.07;3.65;;;2.10;99.90;;;;;;4959339;28;89485;-30
2022/12/08 10:39:42;;;;;;;4.68;2.88;;;2.10;99.90;;;;;;4958520;28;89411;-31
2022/12/08 10:42:17;;;;;;;3.33;2.50;;;2.10;99.90;;;;;;4956497;28;89246;-32
2022/12/08 10:45:01;;;;;;;3.28;2.78;;;2.10;99.90;;;;;;4957513;28;89591;-34
2022/12/08 10:47:28;;;;;;;3.58;2.20;;;2.10;99.90;;;;;;4958343;28;90213;-31
2022/12/08 10:50:08;;;;;;;3.35;2.88;;;2.20;99.90;;;;;;4959615;28;89654;-32
2022/12/08 10:52:38;;;;;;;4.32;2.90;;;2.30;99.90;;;;;;4959300;28;89386;-30
2022/12/08 10:55:16;;;;;;;2.75;2.47;;;2.50;99.90;;;;;;4959148;28;89809;-32
2022/12/08 10:57:42;;;;;;;6.50;3.25;;;2.60;99.90;;;;;;4958782;28;90156;-32
2022/12/08 11:00:14;;;;;;;4.78;3.10;;;2.70;99.90;;;;;;4959568;28;90671;-33
2022/12/08 11:03:03;;;;;;;4.20;2.63;;;2.70;99.90;;;;;;4958432;28;91411;-30
2022/12/08 11:05:33;;;;;;;3.58;2.60;;;2.70;99.90;;;;;;4954819;28;88448;-32
2022/12/08 11:07:59;;;;;;;7.70;2.97;;;2.70;99.90;;;;;;4939839;28;89867;-30
2022/12/08 11:10:41;;;;;;;4.38;3.80;;;2.70;99.90;;;;;;4942398;28;90577;-33
2022/12/08 11:13:18;;;;;;;10.75;5.40;;;2.80;99.90;;;;;;4949820;28;91624;-31
2022/12/08 11:15:45;;;;;;;6.03;5.45;;;2.80;99.90;;;;;;4960821;28;88606;-33
2022/12/08 11:18:21;;;;;;;3.60;3.05;;;2.80;99.90;;;;;;4960215;28;91252;-32
2022/12/08 11:20:56;;;;;;;5.07;3.88;;;2.70;99.90;;;;;;4966689;28;89371;-29
2022/12/08 11:23:24;;;;;;;8.48;4.28;;;2.70;99.90;;;;;;4956366;28;89702;-34
2022/12/08 11:25:51;;;;;;;6.30;4.32;;;2.70;99.90;;;;;;4968348;28;88643;-34
2022/12/08 11:28:22;;;;;;;6.60;4.32;;;2.70;99.90;;;;;;4968992;28;90123;-31
2022/12/08 11:30:56;;;;;;;5.50;4.25;;;2.70;99.90;;;;;;4970188;28;89445;-31
2022/12/08 11:33:27;;;;;;;6.75;4.38;;;2.70;99.90;;;;;;4969611;28;89507;-30
2022/12/08 11:36:06;;;;;;;7.88;5.05;;;2.70;99.90;;;;;;4969764;28;88405;-33
2022/12/08 11:38:34;;;;;;;7.80;5.47;;;2.70;99.90;;;;;;4961364;28;90050;-33
2022/12/08 11:41:13;;;;;;;13.98;6.30;;;2.80;99.90;;;;;;4961108;28;89908;-32
2022/12/08 11:43:45;;;;;;;6.22;5.38;;;2.90;99.90;;;;;;4959998;28;88983;-31
2022/12/08 11:46:21;;;;;;;6.32;4.88;;;3.10;99.90;;;;;;4960466;28;88058;-32
2022/12/08 11:49:00;;;;;;;8.82;5.60;;;3.30;99.90;;;;;;4959437;28;90447;-32
2022/12/08 11:51:41;;;;;;;;;;;3.50;99.90;;;;;;4960641;28;90475;-31
2022/12/08 11:54:14;;;;;;;6.82;5.65;;;3.60;99.90;;;;;;4961657;28;90240;-31
2022/12/08 11:57:00;;;;;;;8.68;6.35;;;3.80;99.90;;;;;;4964388;28;88923;-31
2022/12/08 11:59:32;;;;;;;14.15;5.20;;;3.90;99.90;;;;;;4962416;28;90198;-33
2022/12/08 12:01:59;;;;;;;7.72;5.28;;;4.00;99.90;;;;;;4961051;28;89399;-33
2022/12/08 12:04:34;;;;;;;7.28;5.97;;;4.10;99.90;;;;;;4955984;28;90521;-31
2022/12/08 12:07:31;;;;;;;8.10;5.30;;;4.20;99.90;;;;;;4960315;28;89350;-33
2022/12/08 12:10:08;;;;;;;5.93;5.35;;;4.30;99.90;;;;;;4960025;28;90412;-34
2022/12/08 12:12:54;;;;;;;8.00;5.13;;;4.40;99.90;;;;;;4959259;28;89714;-31
2022/12/08 12:15:56;;;;;;;6.30;5.70;;;4.30;99.90;;;;;;4960207;28;89308;-31
2022/12/08 12:18:39;;;;;;;6.00;4.68;;;4.30;99.90;;;;;;4946240;28;89939;-31
2022/12/08 12:21:19;;;;;;;4.28;3.88;;;4.30;99.90;;;;;;4960910;28;89668;-32
2022/12/08 12:23:47;;;;;;;7.72;4.93;;;4.30;99.90;;;;;;4959903;28;88424;-33
2022/12/08 12:26:20;;;;;;;;;;;4.20;99.90;;;;;;4959938;28;89953;-35
2022/12/08 12:28:58;;;;;;;4.78;4.38;;;4.20;99.90;;;;;;4962917;28;90183;-31
2022/12/08 12:31:33;;;;;;;7.55;4.35;;;4.10;99.90;;;;;;4961355;28;90237;-34
2022/12/08 12:34:24;;;;;;;8.80;5.18;;;4.00;99.90;;;;;;4960292;28;89313;-30
2022/12/08 12:36:54;;;;;;;5.40;4.82;;;3.90;99.90;;;;;;4960746;28;89399;-30
2022/12/08 12:39:23;;;;;;;6.93;5.75;;;3.90;99.90;;;;;;4957025;28;89393;-32
2022/12/08 12:41:57;;;;;;;7.35;5.60;;;3.80;99.90;;;;;;4953433;28;90943;-32
2022/12/08 12:44:36;;;;;;;7.78;4.82;;;3.80;99.90;;;;;;4959876;28;90212;-31
2022/12/08 12:47:07;;;;;;;7.15;4.80;;;3.80;99.90;;;;;;4960793;28;89238;-33
2022/12/08 12:49:42;;;;;;;7.05;5.40;;;3.80;99.90;;;;;;4959950;28;89231;-33
2022/12/08 12:52:14;;;;;;;6.97;5.15;;;3.90;99.90;;;;;;4961050;28;90546;-34
2022/12/08 12:55:03;;;;;;;5.43;4.57;;;3.90;99.90;;;;;;4961560;28;89700;-31
2022/12/08 12:57:37;;;;;;;6.45;4.85;;;3.90;99.90;;;;;;4959646;28;89886;-31
2022/12/08 13:00:02;;;;;;;10.27;6.05;;;3.90;99.90;;;;;;4959973;28;88322;-31
2022/12/08 13:02:31;;;;;;;9.50;4.95;;;3.90;99.90;;;;;;4959578;28;89198;-31
2022/12/08 13:04:58;;;;;;;;;;;3.90;99.90;;;;;;4961267;28;89017;-31
2022/12/08 13:07:40;;;;;;;6.90;4.80;;;3.80;99.90;;;;;;4962010;28;87982;-34
2022/12/08 13:10:17;;;;;;;6.57;4.32;;;3.80;99.90;;;;;;4959686;28;89041;-32
2022/12/08 13:12:45;;;;;;;6.47;4.25;;;3.80;99.90;;;;;;4959580;28;89828;-30
2022/12/08 13:15:19;;;;;;;9.32;5.53;;;3.80;99.90;;;;;;4959458;28;90417;-31
2022/12/08 13:17:47;;;;;;;6.72;5.65;;;3.80;99.90;;;;;;4950830;28;89193;-33
2022/12/08 13:20:24;;;;;;;11.05;4.45;;;3.80;99.90;;;;;;4955835;28;89328;-31